createdAt,value
2022-12-11T00:00:57.407Z,101150.47
2022-12-11T00:03:25.523Z,101155.16
2022-12-11T00:05:53.511Z,101151.03
2022-12-11T00:08:22.797Z,101158.88
2022-12-11T00:10:51.077Z,101152.97
2022-12-11T00:13:18.913Z,101160.63
2022-12-11T00:15:46.834Z,101148.06
2022-12-11T00:18:15.238Z,101149.22
2022-12-11T00:20:43.188Z,101147.47
2022-12-11T00:23:11.887Z,101140.31
2022-12-11T00:25:45.079Z,101148.81
2022-12-11T00:28:13.467Z,101144.63
2022-12-11T00:30:42.375Z,101153.81
2022-12-11T00:33:12.067Z,101147.78
2022-12-11T00:35:41.859Z,101145.88
2022-12-11T00:38:10.423Z,101137.69
2022-12-11T00:40:38.756Z,101128.41
2022-12-11T00:43:08.547Z,101132.72
2022-12-11T00:45:38.226Z,101133.41
2022-12-11T00:48:07.120Z,101140.09
2022-12-11T00:50:35.453Z,101141.81
2022-12-11T00:53:04.470Z,101143.22
2022-12-11T00:55:33.405Z,101143.69
2022-12-11T00:58:01.420Z,101153.31
2022-12-11T01:00:30.988Z,101150.06
2022-12-11T01:02:58.900Z,101151.34
2022-12-11T01:05:27.117Z,101149.91
2022-12-11T01:07:55.579Z,101148.63
2022-12-11T01:10:26.383Z,101154.88
2022-12-11T01:12:56.244Z,101147.59
2022-12-11T01:15:26.011Z,101152.47
2022-12-11T01:17:55.620Z,101152.91
2022-12-11T01:20:25.483Z,101155.16
2022-12-11T01:22:54.215Z,101148.00
2022-12-11T01:25:22.549Z,101152.75
2022-12-11T01:27:52.497Z,101152.97
2022-12-11T01:30:22.457Z,101154.28
2022-12-11T01:32:50.883Z,101155.66
2022-12-11T01:35:20.722Z,101158.03
2022-12-11T01:37:49.286Z,101163.81
2022-12-11T01:40:20.119Z,101169.78
2022-12-11T01:42:48.264Z,101174.66
2022-12-11T01:45:39.975Z,101175.41
2022-12-11T01:48:11.164Z,101175.63
2022-12-11T01:50:45.066Z,101173.06
2022-12-11T01:53:18.687Z,101180.47
2022-12-11T01:55:49.451Z,101175.31
2022-12-11T01:58:19.475Z,101173.66
2022-12-11T02:00:47.679Z,101166.25
2022-12-11T02:03:15.711Z,101164.34
2022-12-11T02:05:45.235Z,101170.25
2022-12-11T02:08:13.658Z,101174.31
2022-12-11T02:10:55.836Z,101172.09
2022-12-11T02:13:30.647Z,101168.97
2022-12-11T02:16:05.941Z,101162.84
2022-12-11T02:18:39.967Z,101159.63
2022-12-11T02:21:14.413Z,101160.13
2022-12-11T02:24:04.563Z,101151.44
2022-12-11T02:26:47.447Z,101146.34
2022-12-11T02:29:21.053Z,101146.19
2022-12-11T02:31:54.674Z,101149.94
2022-12-11T02:34:26.428Z,101144.13
2022-12-11T02:37:00.279Z,101152.38
2022-12-11T02:39:29.661Z,101135.94
2022-12-11T02:41:57.999Z,101136.16
2022-12-11T02:44:31.599Z,101136.16
2022-12-11T02:47:00.543Z,101141.97
2022-12-11T02:49:29.363Z,101136.25
2022-12-11T02:51:58.163Z,101136.88
2022-12-11T02:54:31.368Z,101137.75
2022-12-11T02:57:04.773Z,101136.88
2022-12-11T02:59:35.807Z,101141.09
2022-12-11T03:02:04.405Z,101138.50
2022-12-11T03:04:34.848Z,101135.38
2022-12-11T03:07:12.005Z,101135.81
2022-12-11T03:09:40.583Z,101127.97
2022-12-11T03:12:10.689Z,101127.97
2022-12-11T03:14:41.902Z,101113.78
2022-12-11T03:17:14.937Z,101114.00
2022-12-11T03:19:51.264Z,101110.16
2022-12-11T03:22:23.860Z,101111.63
2022-12-11T03:24:54.851Z,101115.63
2022-12-11T03:27:28.198Z,101112.84
2022-12-11T03:30:01.450Z,101113.28
2022-12-11T03:32:32.366Z,101109.94
2022-12-11T03:35:04.819Z,101107.91
2022-12-11T03:37:37.651Z,101112.72
2022-12-11T03:40:11.867Z,101109.06
2022-12-11T03:42:41.532Z,101115.09
2022-12-11T03:45:13.115Z,101109.38
2022-12-11T03:47:43.823Z,101110.56
2022-12-11T03:50:15.373Z,101116.38
2022-12-11T03:52:46.374Z,101113.25
2022-12-11T03:55:17.219Z,101110.59
2022-12-11T03:57:45.655Z,101109.06
2022-12-11T04:00:18.021Z,101107.75
2022-12-11T04:03:12.645Z,101097.66
2022-12-11T04:05:42.416Z,101099.06
2022-12-11T04:08:11.328Z,101101.56
2022-12-11T04:10:39.715Z,101099.81
2022-12-11T04:13:08.406Z,101098.50
2022-12-11T04:15:38.735Z,101093.75
2022-12-11T04:18:25.537Z,101097.97
2022-12-11T04:21:12.750Z,101099.50
2022-12-11T04:23:58.579Z,101098.19
2022-12-11T04:26:26.905Z,101101.13
2022-12-11T04:28:55.452Z,101102.81
2022-12-11T04:31:24.719Z,101099.72
2022-12-11T04:33:53.258Z,101098.41
2022-12-11T04:36:21.436Z,101100.66
2022-12-11T04:38:49.371Z,101100.03
2022-12-11T04:41:18.331Z,101095.97
2022-12-11T04:43:46.325Z,101087.75
2022-12-11T04:46:16.505Z,101089.72
2022-12-11T04:48:46.273Z,101092.28
2022-12-11T04:51:15.246Z,101097.44
2022-12-11T04:53:43.297Z,101086.47
2022-12-11T04:56:13.787Z,101083.16
2022-12-11T04:58:42.433Z,101083.16
2022-12-11T05:01:11.597Z,101074.75
2022-12-11T05:03:40.530Z,101084.13
2022-12-11T05:06:10.943Z,101080.78
2022-12-11T05:08:40.706Z,101083.69
2022-12-11T05:11:11.719Z,101092.63
2022-12-11T05:13:40.440Z,101088.97
2022-12-11T05:16:10.334Z,101084.75
2022-12-11T05:18:38.634Z,101098.75
2022-12-11T05:21:09.745Z,101086.91
2022-12-11T05:23:38.310Z,101082.19
2022-12-11T05:26:09.787Z,101088.97
2022-12-11T05:28:39.132Z,101080.59
2022-12-11T05:31:09.683Z,101076.28
2022-12-11T05:33:37.686Z,101078.75
2022-12-11T05:36:06.126Z,101081.00
2022-12-11T05:38:35.920Z,101070.91
2022-12-11T05:41:07.181Z,101076.59
2022-12-11T05:43:37.867Z,101075.72
2022-12-11T05:46:07.236Z,101069.41
2022-12-11T05:48:35.889Z,101057.22
2022-12-11T05:51:05.276Z,101048.84
2022-12-11T05:53:35.581Z,101058.75
2022-12-11T05:56:04.621Z,101061.56
2022-12-11T05:58:33.013Z,101063.91
2022-12-11T06:01:02.159Z,101066.16
2022-12-11T06:03:30.283Z,101054.88
2022-12-11T06:05:58.387Z,101058.88
2022-12-11T06:08:26.783Z,101057.66
2022-12-11T06:10:56.346Z,101061.34
2022-12-11T06:13:24.639Z,101061.13
2022-12-11T06:15:52.817Z,101051.66
2022-12-11T06:18:21.219Z,101059.19
2022-12-11T06:20:49.356Z,101054.34
2022-12-11T06:23:18.356Z,101061.31
2022-12-11T06:25:46.513Z,101063.97
2022-12-11T06:28:16.266Z,101061.84
2022-12-11T06:30:45.018Z,101061.09
2022-12-11T06:33:13.520Z,101065.84
2022-12-11T06:35:42.575Z,101060.25
2022-12-11T06:38:10.978Z,101058.31
2022-12-11T06:40:39.472Z,101064.31
2022-12-11T06:43:07.505Z,101063.66
2022-12-11T06:45:38.472Z,101065.81
2022-12-11T06:48:07.035Z,101068.50
2022-12-11T06:50:34.908Z,101070.56
2022-12-11T06:53:03.127Z,101065.59
2022-12-11T06:55:31.481Z,101067.53
2022-12-11T06:57:59.564Z,101069.50
2022-12-11T07:00:27.675Z,101067.97
2022-12-11T07:02:57.151Z,101080.31
2022-12-11T07:05:25.369Z,101087.47
2022-12-11T07:07:54.774Z,101092.41
2022-12-11T07:10:23.573Z,101092.50
2022-12-11T07:12:53.489Z,101102.09
2022-12-11T07:15:21.935Z,101091.97
2022-12-11T07:17:49.859Z,101094.31
2022-12-11T07:20:19.170Z,101095.50
2022-12-11T07:22:47.156Z,101089.50
2022-12-11T07:25:15.383Z,101092.59
2022-12-11T07:27:43.707Z,101090.91
2022-12-11T07:30:13.082Z,101085.19
2022-12-11T07:32:41.178Z,101087.34
2022-12-11T07:35:10.437Z,101093.25
2022-12-11T07:37:42.619Z,101094.66
2022-12-11T07:40:11.684Z,101085.59
2022-12-11T07:42:45.821Z,101087.56
2022-12-11T07:45:14.388Z,101092.34
2022-12-11T07:47:42.837Z,101088.91
2022-12-11T07:50:11.276Z,101084.78
2022-12-11T07:52:39.158Z,101088.31
2022-12-11T07:55:09.694Z,101087.03
2022-12-11T07:57:38.490Z,101091.97
2022-12-11T08:00:07.903Z,101090.50
2022-12-11T08:02:40.687Z,101084.66
2022-12-11T08:05:10.222Z,101085.84
2022-12-11T08:07:38.977Z,101089.34
2022-12-11T08:10:08.968Z,101093.66
2022-12-11T08:12:37.037Z,101091.34
2022-12-11T08:15:05.674Z,101090.69
2022-12-11T08:17:39.693Z,101087.34
2022-12-11T08:20:09.649Z,101082.06
2022-12-11T08:22:37.698Z,101090.63
2022-12-11T08:25:06.458Z,101087.00
2022-12-11T08:27:35.933Z,101093.25
2022-12-11T08:30:04.738Z,101093.34
2022-12-11T08:32:32.623Z,101092.47
2022-12-11T08:35:00.852Z,101089.59
2022-12-11T08:37:29.661Z,101087.06
2022-12-11T08:39:57.677Z,101088.03
2022-12-11T08:42:25.663Z,101091.94
2022-12-11T08:44:55.013Z,101093.97
2022-12-11T08:47:23.107Z,101099.25
2022-12-11T08:49:51.132Z,101091.66
2022-12-11T08:52:18.967Z,101096.81
2022-12-11T08:54:46.831Z,101096.00
2022-12-11T08:57:14.762Z,101093.97
2022-12-11T08:59:44.951Z,101093.72
2022-12-11T09:02:14.453Z,101098.81
2022-12-11T09:04:43.288Z,101097.78
2022-12-11T09:07:12.060Z,101092.19
2022-12-11T09:09:39.994Z,101088.22
2022-12-11T09:12:07.959Z,101088.50
2022-12-11T09:14:36.170Z,101092.69
2022-12-11T09:17:05.485Z,101103.59
2022-12-11T09:19:34.876Z,101093.88
2022-12-11T09:22:03.494Z,101103.34
2022-12-11T09:24:31.449Z,101098.59
2022-12-11T09:26:59.546Z,101090.00
2022-12-11T09:29:27.694Z,101082.78
2022-12-11T09:31:55.959Z,101085.81
2022-12-11T09:34:29.151Z,101085.94
2022-12-11T09:36:59.538Z,101084.13
2022-12-11T09:39:27.744Z,101077.00
2022-12-11T09:42:03.692Z,101082.78
2022-12-11T09:44:39.116Z,101075.44
2022-12-11T09:47:18.465Z,101072.50
2022-12-11T09:49:49.456Z,101075.50
2022-12-11T09:52:24.827Z,101069.81
2022-12-11T09:54:58.309Z,101071.09
2022-12-11T09:57:44.040Z,101065.31
2022-12-11T10:00:20.314Z,101071.16
2022-12-11T10:03:03.856Z,101068.59
2022-12-11T10:05:40.013Z,101067.34
2022-12-11T10:08:19.119Z,101074.03
2022-12-11T10:10:56.796Z,101065.00
2022-12-11T10:13:31.764Z,101072.50
2022-12-11T10:16:06.695Z,101067.41
2022-12-11T10:18:35.382Z,101060.94
2022-12-11T10:21:04.530Z,101066.72
2022-12-11T10:23:39.812Z,101057.19
2022-12-11T10:26:12.449Z,101065.41
2022-12-11T10:28:40.474Z,101059.81
2022-12-11T10:31:18.361Z,101058.72
2022-12-11T10:33:57.595Z,101051.91
2022-12-11T10:36:30.249Z,101046.44
2022-12-11T10:38:59.901Z,101049.53
2022-12-11T10:41:38.070Z,101048.88
2022-12-11T10:44:16.507Z,101045.66
2022-12-11T10:46:45.757Z,101049.59
2022-12-11T10:49:26.286Z,101049.44
2022-12-11T10:51:56.115Z,101041.44
2022-12-11T10:54:34.308Z,101042.63
2022-12-11T10:57:04.323Z,101036.38
2022-12-11T10:59:37.913Z,101041.00
2022-12-11T11:02:08.524Z,101046.03
2022-12-11T11:04:39.400Z,101041.84
2022-12-11T11:07:14.490Z,101038.38
2022-12-11T11:09:44.465Z,101044.34
2022-12-11T11:12:21.393Z,101039.44
2022-12-11T11:15:00.765Z,101035.31
2022-12-11T11:17:34.702Z,101035.66
2022-12-11T11:20:13.448Z,101040.94
2022-12-11T11:22:45.933Z,101026.28
2022-12-11T11:25:21.073Z,101032.50
2022-12-11T11:27:55.117Z,101035.72
2022-12-11T11:30:25.607Z,101035.50
2022-12-11T11:32:56.282Z,101035.97
2022-12-11T11:35:27.319Z,101032.56
2022-12-11T11:38:01.696Z,101036.69
2022-12-11T11:40:35.227Z,101033.41
2022-12-11T11:43:07.168Z,101038.44
2022-12-11T11:45:44.034Z,101035.69
2022-12-11T11:48:23.900Z,101043.03
2022-12-11T11:50:53.934Z,101032.03
2022-12-11T11:53:38.093Z,101037.97
2022-12-11T11:56:20.037Z,101032.03
2022-12-11T11:58:56.159Z,101038.28
2022-12-11T12:01:25.236Z,101029.41
2022-12-11T12:03:53.787Z,101025.63
2022-12-11T12:06:31.142Z,101024.34
2022-12-11T12:09:13.074Z,101023.97
2022-12-11T12:11:49.523Z,101030.03
2022-12-11T12:14:51.233Z,101032.97
2022-12-11T12:17:21.410Z,101027.22
2022-12-11T12:20:00.094Z,101031.63
2022-12-11T12:22:46.604Z,101025.06
2022-12-11T12:25:23.306Z,101026.75
2022-12-11T12:28:00.863Z,101022.22
2022-12-11T12:30:36.848Z,101028.13
2022-12-11T12:33:21.048Z,101023.78
2022-12-11T12:36:00.841Z,101017.63
2022-12-11T12:38:42.472Z,101022.06
2022-12-11T12:41:21.845Z,101021.84
2022-12-11T12:44:13.929Z,101017.78
2022-12-11T12:46:51.753Z,101023.44
2022-12-11T12:49:33.974Z,101020.53
2022-12-11T12:52:03.295Z,101019.31
2022-12-11T12:54:35.636Z,101019.94
2022-12-11T12:57:05.396Z,101013.03
2022-12-11T12:59:37.359Z,101012.66
2022-12-11T13:02:09.421Z,101018.75
2022-12-11T13:04:58.449Z,101011.34
2022-12-11T13:07:35.044Z,101025.06
2022-12-11T13:10:08.881Z,101014.81
2022-12-11T13:12:45.404Z,101010.16
2022-12-11T13:15:33.013Z,101012.94
2022-12-11T13:18:31.750Z,101017.94
2022-12-11T13:21:02.992Z,101027.59
2022-12-11T13:23:40.706Z,101024.88
2022-12-11T13:26:10.646Z,101024.91
2022-12-11T13:28:51.119Z,101033.69
2022-12-11T13:31:34.942Z,101028.41
2022-12-11T13:34:19.746Z,101027.34
2022-12-11T13:36:50.133Z,101026.72
2022-12-11T13:39:20.943Z,101030.78
2022-12-11T13:41:53.462Z,101030.03
2022-12-11T13:44:25.962Z,101030.78
2022-12-11T13:47:00.025Z,101027.75
2022-12-11T13:49:31.345Z,101034.09
2022-12-11T13:52:00.874Z,101022.19
2022-12-11T13:54:31.408Z,101026.75
2022-12-11T13:57:03.545Z,101023.72
2022-12-11T13:59:34.958Z,101025.06
2022-12-11T14:02:14.265Z,101021.47
2022-12-11T14:04:43.442Z,101020.97
2022-12-11T14:07:12.941Z,101023.66
2022-12-11T14:09:45.469Z,101024.88
2022-12-11T14:12:19.506Z,101028.16
2022-12-11T14:14:52.358Z,101030.19
2022-12-11T14:17:26.490Z,101031.25
2022-12-11T14:19:55.879Z,101042.41
2022-12-11T14:22:26.101Z,101041.84
2022-12-11T14:24:56.206Z,101035.06
2022-12-11T14:27:26.290Z,101040.38
2022-12-11T14:29:54.534Z,101042.56
2022-12-11T14:32:32.894Z,101045.59
2022-12-11T14:35:03.473Z,101045.59
2022-12-11T14:37:32.437Z,101049.31
2022-12-11T14:40:04.426Z,101050.78
2022-12-11T14:42:34.854Z,101046.22
2022-12-11T14:45:09.420Z,101050.97
2022-12-11T14:47:43.608Z,101045.44
2022-12-11T14:50:19.254Z,101043.66
2022-12-11T14:52:49.239Z,101046.13
2022-12-11T14:55:20.950Z,101052.19
2022-12-11T14:57:51.198Z,101054.69
2022-12-11T15:00:24.590Z,101057.38
2022-12-11T15:03:02.726Z,101060.03
2022-12-11T15:05:37.121Z,101048.53
2022-12-11T15:08:24.484Z,101045.47
2022-12-11T15:11:07.315Z,101043.47
2022-12-11T15:13:37.645Z,101047.03
2022-12-11T15:16:08.374Z,101050.53
2022-12-11T15:18:41.697Z,101057.03
2022-12-11T15:21:13.268Z,101057.53
2022-12-11T15:23:52.770Z,101054.19
2022-12-11T15:26:22.059Z,101049.91
2022-12-11T15:29:01.999Z,101048.66
2022-12-11T15:31:32.006Z,101041.06
2022-12-11T15:34:03.760Z,101053.88
2022-12-11T15:36:34.803Z,101049.13
2022-12-11T15:39:03.574Z,101047.66
2022-12-11T15:41:33.432Z,101043.38
2022-12-11T15:44:03.655Z,101040.75
2022-12-11T15:46:36.073Z,101047.50
2022-12-11T15:49:12.768Z,101046.81
2022-12-11T15:51:43.103Z,101049.38
2022-12-11T15:54:11.713Z,101039.47
2022-12-11T15:56:41.024Z,101038.44
2022-12-11T15:59:11.000Z,101042.81
2022-12-11T16:01:38.895Z,101043.59
2022-12-11T16:04:08.358Z,101053.97
2022-12-11T16:06:36.324Z,101057.63
2022-12-11T16:09:05.713Z,101058.88
2022-12-11T16:11:33.685Z,101052.41
2022-12-11T16:14:04.504Z,101054.41
2022-12-11T16:16:32.650Z,101054.03
2022-12-11T16:19:00.844Z,101047.63
2022-12-11T16:21:30.377Z,101052.53
2022-12-11T16:23:58.303Z,101059.06
2022-12-11T16:26:26.212Z,101051.34
2022-12-11T16:28:54.199Z,101051.50
2022-12-11T16:31:22.300Z,101048.53
2022-12-11T16:33:50.278Z,101054.84
2022-12-11T16:36:20.153Z,101053.97
2022-12-11T16:38:53.959Z,101052.78
2022-12-11T16:41:23.800Z,101057.19
2022-12-11T16:43:52.298Z,101046.63
2022-12-11T16:46:21.327Z,101052.25
2022-12-11T16:48:49.719Z,101051.13
2022-12-11T16:51:18.305Z,101047.47
2022-12-11T16:53:46.492Z,101046.63
2022-12-11T16:56:16.152Z,101049.72
2022-12-11T16:58:44.332Z,101048.91
2022-12-11T17:01:13.930Z,101050.06
2022-12-11T17:03:43.524Z,101056.47
2022-12-11T17:06:13.848Z,101054.19
2022-12-11T17:08:42.916Z,101050.41
2022-12-11T17:11:13.390Z,101059.53
2022-12-11T17:13:42.713Z,101063.09
2022-12-11T17:16:14.170Z,101064.53
2022-12-11T17:18:42.788Z,101059.66
2022-12-11T17:21:12.561Z,101055.41
2022-12-11T17:23:43.516Z,101060.38
2022-12-11T17:26:15.151Z,101053.25
2022-12-11T17:28:46.963Z,101063.25
2022-12-11T17:31:19.735Z,101056.25
2022-12-11T17:33:50.029Z,101059.28
2022-12-11T17:36:21.634Z,101060.00
2022-12-11T17:38:50.550Z,101062.78
2022-12-11T17:41:20.901Z,101061.66
2022-12-11T17:43:51.921Z,101062.78
2022-12-11T17:46:21.772Z,101065.53
2022-12-11T17:48:50.215Z,101068.59
2022-12-11T17:51:23.823Z,101065.69
2022-12-11T17:53:53.631Z,101061.88
2022-12-11T17:56:21.626Z,101063.94
2022-12-11T17:58:51.184Z,101061.69
2022-12-11T18:01:19.769Z,101063.50
2022-12-11T18:03:48.269Z,101063.91
2022-12-11T18:06:17.040Z,101068.19
2022-12-11T18:08:46.233Z,101063.50
2022-12-11T18:11:16.740Z,101068.91
2022-12-11T18:13:46.008Z,101068.38
2022-12-11T18:16:17.811Z,101073.19
2022-12-11T18:18:47.247Z,101065.34
2022-12-11T18:21:17.477Z,101061.78
2022-12-11T18:23:46.137Z,101063.28
2022-12-11T18:26:15.396Z,101059.72
2022-12-11T18:28:43.801Z,101065.09
2022-12-11T18:31:13.722Z,101059.81
2022-12-11T18:33:44.839Z,101067.03
2022-12-11T18:36:13.729Z,101057.53
2022-12-11T18:38:44.965Z,101060.72
2022-12-11T18:41:15.113Z,101056.97
2022-12-11T18:43:43.144Z,101062.78
2022-12-11T18:46:14.245Z,101066.34
2022-12-11T18:48:44.814Z,101075.28
2022-12-11T18:51:15.639Z,101066.31
2022-12-11T18:53:44.449Z,101071.06
2022-12-11T18:56:14.791Z,101063.25
2022-12-11T18:58:43.875Z,101066.25
2022-12-11T19:01:14.119Z,101070.03
2022-12-11T19:03:47.325Z,101074.81
2022-12-11T19:06:19.118Z,101078.91
2022-12-11T19:08:47.887Z,101072.91
2022-12-11T19:11:17.732Z,101073.69
2022-12-11T19:13:47.323Z,101067.44
2022-12-11T19:16:17.336Z,101071.47
2022-12-11T19:18:47.035Z,101065.84
2022-12-11T19:21:16.787Z,101077.47
2022-12-11T19:23:46.210Z,101067.31
2022-12-11T19:26:16.960Z,101069.16
2022-12-11T19:28:45.538Z,101066.47
2022-12-11T19:31:16.345Z,101071.47
2022-12-11T19:33:46.790Z,101062.34
2022-12-11T19:36:17.792Z,101064.28
2022-12-11T19:38:47.287Z,101065.94
2022-12-11T19:41:18.355Z,101068.69
2022-12-11T19:43:46.711Z,101066.06
2022-12-11T19:46:16.096Z,101068.53
2022-12-11T19:48:46.540Z,101065.84
2022-12-11T19:51:16.170Z,101072.28
2022-12-11T19:53:45.797Z,101072.66
2022-12-11T19:56:14.860Z,101074.47
2022-12-11T19:58:44.056Z,101078.03
2022-12-11T20:01:22.544Z,101083.75
2022-12-11T20:03:52.299Z,101084.91
2022-12-11T20:06:21.007Z,101080.34
2022-12-11T20:08:49.717Z,101075.72
2022-12-11T20:11:19.231Z,101080.34
2022-12-11T20:13:47.541Z,101076.81
2022-12-11T20:16:17.313Z,101075.03
2022-12-11T20:18:46.193Z,101080.75
2022-12-11T20:21:18.118Z,101076.00
2022-12-11T20:23:46.713Z,101085.31
2022-12-11T20:26:17.701Z,101079.88
2022-12-11T20:28:48.212Z,101088.31
2022-12-11T20:31:20.428Z,101083.72
2022-12-11T20:33:49.753Z,101087.00
2022-12-11T20:36:21.426Z,101089.34
2022-12-11T20:38:49.753Z,101091.66
2022-12-11T20:41:21.303Z,101078.75
2022-12-11T20:43:50.071Z,101082.50
2022-12-11T20:46:20.326Z,101085.25
2022-12-11T20:48:48.809Z,101089.84
2022-12-11T20:51:25.824Z,101089.22
2022-12-11T20:53:58.919Z,101087.47
2022-12-11T20:56:29.599Z,101090.31
2022-12-11T20:58:58.609Z,101093.84
2022-12-11T21:01:28.521Z,101088.25
2022-12-11T21:03:56.955Z,101093.41
2022-12-11T21:06:28.403Z,101095.69
2022-12-11T21:08:56.352Z,101093.03
2022-12-11T21:11:25.106Z,101095.69
2022-12-11T21:13:54.124Z,101096.19
2022-12-11T21:16:23.567Z,101094.13
2022-12-11T21:18:52.078Z,101095.78
2022-12-11T21:21:22.193Z,101098.47
2022-12-11T21:23:51.778Z,101097.59
2022-12-11T21:26:19.958Z,101095.56
2022-12-11T21:28:47.988Z,101102.50
2022-12-11T21:31:19.327Z,101095.22
2022-12-11T21:33:49.216Z,101095.91
2022-12-11T21:36:19.895Z,101101.34
2022-12-11T21:38:54.980Z,101092.69
2022-12-11T21:41:26.694Z,101098.09
2022-12-11T21:45:14.634Z,101098.81
2022-12-11T21:46:45.824Z,101099.75
2022-12-11T21:49:13.844Z,101094.75
2022-12-11T21:51:47.181Z,101109.59
2022-12-11T21:54:19.008Z,101106.47
2022-12-11T21:56:48.260Z,101105.94
2022-12-11T21:59:16.896Z,101107.53
2022-12-11T22:01:47.207Z,101104.56
2022-12-11T22:04:17.132Z,101108.78
2022-12-11T22:06:47.380Z,101104.59
2022-12-11T22:09:18.004Z,101098.50
2022-12-11T22:11:47.576Z,101098.66
2022-12-11T22:14:18.596Z,101097.63
2022-12-11T22:16:47.266Z,101097.38
2022-12-11T22:19:15.816Z,101106.25
2022-12-11T22:21:44.257Z,101104.91
2022-12-11T22:24:12.637Z,101101.66
2022-12-11T22:26:41.902Z,101107.50
2022-12-11T22:29:09.900Z,101108.69
2022-12-11T22:31:37.918Z,101108.00
2022-12-11T22:34:06.198Z,101113.91
2022-12-11T22:36:34.312Z,101113.53
2022-12-11T22:39:03.032Z,101108.56
2022-12-11T22:41:32.727Z,101109.25
2022-12-11T22:44:02.607Z,101105.84
2022-12-11T22:46:31.763Z,101100.88
2022-12-11T22:49:00.207Z,101105.22
2022-12-11T22:51:28.421Z,101103.31
2022-12-11T22:53:56.431Z,101113.78
2022-12-11T22:56:24.992Z,101107.69
2022-12-11T22:58:53.136Z,101110.19
2022-12-11T23:01:25.187Z,101110.28
2022-12-11T23:03:53.952Z,101108.84
2022-12-11T23:06:24.925Z,101105.53
2022-12-11T23:08:55.080Z,101105.31
2022-12-11T23:11:25.889Z,101103.88
2022-12-11T23:13:54.500Z,101110.84
2022-12-11T23:16:26.310Z,101118.47
2022-12-11T23:18:55.192Z,101120.19
2022-12-11T23:21:24.375Z,101118.03
2022-12-11T23:23:52.844Z,101119.31
2022-12-11T23:26:21.827Z,101123.50
2022-12-11T23:28:50.724Z,101120.72
2022-12-11T23:31:18.844Z,101115.13
2022-12-11T23:33:48.263Z,101119.69
2022-12-11T23:36:16.456Z,101130.72
2022-12-11T23:38:47.179Z,101125.19
2022-12-11T23:41:17.594Z,101126.28
2022-12-11T23:43:45.499Z,101126.69
2022-12-11T23:46:16.357Z,101127.09
2022-12-11T23:48:44.759Z,101129.47
2022-12-11T23:51:16.583Z,101125.53
2022-12-11T23:53:45.129Z,101130.66
2022-12-11T23:56:15.870Z,101136.44
2022-12-11T23:58:43.754Z,101132.53
